Time;durP1;ratioP1;P1;durP2;ratioP2;P2;SDS_P1;SDS_P2;PMS_P1;PMS_P2;Temp;Humidity;BMP_temperature;BMP_pressure;BME280_temperature;BME280_humidity;BME280_pressure;Samples;Min_cycle;Max_cycle;Signal;HPM_P1;HPM_P2
2023/08/29 00:00:19;;;;;;;2.53;1.25;;;13.20;99.90;;;;;;5073177;28;20032;-58
2023/08/29 00:02:45;;;;;;;5.82;2.40;;;13.30;99.90;;;;;;5073806;28;20060;-56
2023/08/29 00:05:10;;;;;;;5.18;2.60;;;13.30;99.90;;;;;;5073597;28;20048;-58
2023/08/29 00:07:37;;;;;;;3.35;2.03;;;13.30;99.90;;;;;;5073346;28;20059;-56
2023/08/29 00:10:04;;;;;;;3.80;2.50;;;13.30;99.90;;;;;;5073848;28;20110;-59
2023/08/29 00:12:31;;;;;;;3.85;2.75;;;13.30;99.90;;;;;;5071800;28;20444;-56
2023/08/29 00:14:58;;;;;;;6.07;2.70;;;13.30;99.90;;;;;;5072867;28;20053;-58
2023/08/29 00:17:24;;;;;;;5.50;2.80;;;13.30;99.90;;;;;;5073245;28;20472;-57
2023/08/29 00:19:49;;;;;;;4.15;2.40;;;13.30;99.90;;;;;;5071108;28;20047;-56
2023/08/29 00:22:15;;;;;;;5.70;3.20;;;13.20;99.90;;;;;;5072964;28;20045;-57
2023/08/29 00:24:44;;;;;;;5.07;3.17;;;13.10;99.90;;;;;;5073223;28;20028;-58
2023/08/29 00:27:10;;;;;;;4.45;3.13;;;13.10;99.90;;;;;;5072756;28;20040;-56
2023/08/29 00:29:36;;;;;;;6.30;3.40;;;13.20;99.90;;;;;;5072591;28;20077;-57
2023/08/29 00:32:02;;;;;;;5.63;3.50;;;13.20;99.90;;;;;;5072914;28;20116;-57
2023/08/29 00:34:27;;;;;;;5.80;3.33;;;13.20;99.90;;;;;;5073205;28;20051;-58
2023/08/29 00:36:53;;;;;;;7.85;4.10;;;13.10;99.90;;;;;;5072785;28;20032;-55
2023/08/29 00:39:19;;;;;;;4.72;3.17;;;13.10;99.90;;;;;;5070956;28;20093;-57
2023/08/29 00:41:48;;;;;;;5.05;3.80;;;13.10;99.90;;;;;;5072843;28;20043;-59
2023/08/29 00:44:15;;;;;;;5.03;3.83;;;13.10;99.90;;;;;;5072672;28;20149;-60
2023/08/29 00:46:42;;;;;;;6.47;3.72;;;13.10;99.90;;;;;;5072553;28;20047;-55
2023/08/29 00:49:08;;;;;;;5.40;3.80;;;13.10;99.90;;;;;;5072592;28;20087;-58
2023/08/29 00:51:34;;;;;;;5.50;4.03;;;13.10;99.90;;;;;;5072648;28;20468;-57
2023/08/29 00:54:02;;;;;;;5.35;4.32;;;13.10;99.90;;;;;;5072609;28;20055;-59
2023/08/29 00:56:29;;;;;;;7.55;4.53;;;13.00;99.90;;;;;;5072562;28;20145;-55
2023/08/29 00:58:54;;;;;;;5.53;4.57;;;13.00;99.90;;;;;;5072749;28;20127;-58
2023/08/29 01:01:20;;;;;;;6.13;2.60;;;13.10;99.90;;;;;;5070867;28;20029;-56
2023/08/29 01:03:46;;;;;;;5.78;4.05;;;13.10;99.90;;;;;;5072473;28;20033;-57
2023/08/29 01:06:13;;;;;;;5.55;4.75;;;13.00;99.90;;;;;;5072000;28;20033;-58
2023/08/29 01:08:40;;;;;;;6.10;4.60;;;13.00;99.90;;;;;;5071984;28;20036;-56
2023/08/29 01:11:22;;;;;;;5.47;4.20;;;13.00;99.90;;;;;;5071021;28;20098;-59
2023/08/29 01:13:59;;;;;;;7.55;4.18;;;13.00;99.90;;;;;;5071605;28;20028;-58
2023/08/29 01:16:33;;;;;;;7.40;4.15;;;13.00;99.90;;;;;;5070668;28;20542;-58
2023/08/29 01:19:01;;;;;;;6.30;4.45;;;12.90;99.90;;;;;;5071849;28;20151;-59
2023/08/29 01:21:44;;;;;;;5.45;4.22;;;12.90;99.90;;;;;;5072007;28;20059;-60
2023/08/29 01:24:20;;;;;;;8.27;4.70;;;12.90;99.90;;;;;;5068872;28;20040;-56
2023/08/29 01:26:46;;;;;;;5.85;5.00;;;12.90;99.90;;;;;;5070641;28;20036;-58
2023/08/29 01:29:13;;;;;;;6.35;4.60;;;12.80;99.90;;;;;;5072197;28;20037;-57
2023/08/29 01:31:40;;;;;;;6.68;4.90;;;12.80;99.90;;;;;;5070892;28;20399;-58
2023/08/29 01:34:06;;;;;;;6.75;5.05;;;12.80;99.90;;;;;;5070331;28;20040;-60
2023/08/29 01:36:42;;;;;;;7.07;4.57;;;12.80;99.90;;;;;;5071524;28;20044;-59
2023/08/29 01:39:08;;;;;;;5.43;4.20;;;12.80;99.90;;;;;;5071980;28;20477;-57
2023/08/29 01:41:35;;;;;;;5.03;3.92;;;12.80;99.90;;;;;;5071802;28;20127;-59
2023/08/29 01:44:02;;;;;;;5.50;3.40;;;12.70;99.90;;;;;;5071881;28;20051;-58
2023/08/29 01:46:28;;;;;;;4.57;3.30;;;12.70;99.90;;;;;;5070834;28;20399;-56
2023/08/29 01:48:56;;;;;;;6.07;2.15;;;12.60;99.90;;;;;;5071429;28;20048;-56
2023/08/29 01:51:22;;;;;;;5.45;3.78;;;12.60;99.90;;;;;;5071133;28;20037;-57
2023/08/29 01:53:48;;;;;;;5.32;3.95;;;12.60;99.90;;;;;;5071454;28;20554;-55
2023/08/29 01:56:16;;;;;;;5.43;3.90;;;12.70;99.90;;;;;;5071328;28;20031;-57
2023/08/29 01:58:44;;;;;;;5.53;3.85;;;12.60;99.90;;;;;;5071444;28;20051;-58
2023/08/29 02:01:10;;;;;;;5.75;4.22;;;12.60;99.90;;;;;;5071404;28;20109;-58
2023/08/29 02:03:36;;;;;;;5.97;4.30;;;12.60;99.90;;;;;;5071452;28;20032;-60
2023/08/29 02:06:01;;;;;;;5.65;4.22;;;12.50;99.90;;;;;;5071267;28;20032;-58
2023/08/29 02:08:27;;;;;;;5.47;4.38;;;12.50;99.90;;;;;;5068998;28;20090;-56
2023/08/29 02:10:53;;;;;;;6.93;4.38;;;12.50;99.90;;;;;;5071317;28;20055;-57
2023/08/29 02:13:18;;;;;;;5.70;4.75;;;12.50;99.90;;;;;;5068699;28;20361;-59
2023/08/29 02:15:44;;;;;;;5.93;4.60;;;12.60;99.90;;;;;;5070928;28;20082;-56
2023/08/29 02:18:10;;;;;;;7.60;4.72;;;12.50;99.90;;;;;;5069511;28;20475;-58
2023/08/29 02:20:36;;;;;;;5.63;4.22;;;12.50;99.90;;;;;;5070404;28;20082;-56
2023/08/29 02:23:02;;;;;;;5.90;4.38;;;12.60;99.90;;;;;;5071152;28;20036;-54
2023/08/29 02:25:28;;;;;;;6.53;4.20;;;12.50;99.90;;;;;;5070819;28;20335;-58
2023/08/29 02:27:54;;;;;;;6.75;4.88;;;12.60;99.90;;;;;;5071072;28;20124;-59
2023/08/29 02:30:20;;;;;;;5.68;2.42;;;12.60;99.90;;;;;;5069925;28;20766;-57
2023/08/29 02:32:45;;;;;;;6.70;4.78;;;12.50;99.90;;;;;;5070817;28;20048;-55
2023/08/29 02:35:11;;;;;;;6.10;4.07;;;12.50;99.90;;;;;;5070629;28;20048;-56
2023/08/29 02:37:37;;;;;;;6.70;4.20;;;12.60;99.90;;;;;;5071080;28;20399;-57
2023/08/29 02:40:07;;;;;;;7.00;4.45;;;12.50;99.90;;;;;;5070861;28;20113;-59
2023/08/29 02:42:33;;;;;;;6.05;3.85;;;12.50;99.90;;;;;;5070920;28;20120;-57
2023/08/29 02:44:58;;;;;;;6.40;4.10;;;12.40;99.90;;;;;;5070493;28;20446;-58
2023/08/29 02:47:24;;;;;;;4.40;2.33;;;12.50;99.90;;;;;;5070857;28;20071;-58
2023/08/29 02:49:50;;;;;;;5.55;4.28;;;12.50;99.90;;;;;;5070268;28;20136;-58
2023/08/29 02:52:15;;;;;;;5.15;3.90;;;12.40;99.90;;;;;;5069854;28;20392;-56
2023/08/29 02:54:41;;;;;;;7.07;4.68;;;12.30;99.90;;;;;;5069598;28;20114;-59
2023/08/29 02:57:07;;;;;;;7.30;4.50;;;12.30;99.90;;;;;;5070749;28;20032;-55
2023/08/29 02:59:33;;;;;;;5.80;4.60;;;12.30;99.90;;;;;;5070576;28;20037;-57
2023/08/29 03:02:00;;;;;;;7.13;2.88;;;12.30;99.90;;;;;;5070514;28;20454;-56
2023/08/29 03:04:26;;;;;;;6.18;4.68;;;12.30;99.90;;;;;;5069124;28;20044;-57
2023/08/29 03:06:52;;;;;;;7.75;4.78;;;12.20;99.90;;;;;;5069612;28;20037;-54
2023/08/29 03:09:18;;;;;;;6.25;4.88;;;12.30;99.90;;;;;;5069985;28;20040;-56
2023/08/29 03:11:44;;;;;;;6.40;4.78;;;12.20;99.90;;;;;;5070084;28;20115;-56
2023/08/29 03:14:09;;;;;;;5.53;3.92;;;12.30;99.90;;;;;;5070466;28;20132;-59
2023/08/29 03:16:35;;;;;;;8.88;4.60;;;12.30;99.90;;;;;;5068998;28;20090;-59
2023/08/29 03:19:01;;;;;;;5.35;2.42;;;12.20;99.90;;;;;;5070528;28;20649;-60
2023/08/29 03:21:28;;;;;;;6.78;3.83;;;12.10;99.90;;;;;;5069088;28;20055;-58
2023/08/29 03:23:53;;;;;;;5.90;3.50;;;12.10;99.90;;;;;;5070108;28;20066;-55
2023/08/29 03:26:19;;;;;;;5.80;4.10;;;12.20;99.90;;;;;;5070644;28;20052;-59
2023/08/29 03:28:45;;;;;;;6.22;3.90;;;12.10;99.90;;;;;;5068675;28;20032;-55
2023/08/29 03:31:12;;;;;;;8.85;3.53;;;12.20;99.90;;;;;;5070284;28;20039;-56
2023/08/29 03:33:42;;;;;;;6.70;3.13;;;12.20;99.90;;;;;;5069983;28;20081;-58
2023/08/29 03:36:08;;;;;;;5.13;2.60;;;12.10;99.90;;;;;;5070613;28;20066;-57
2023/08/29 03:38:38;;;;;;;5.65;3.15;;;12.10;99.90;;;;;;5067760;28;20044;-56
2023/08/29 03:41:05;;;;;;;22.25;3.53;;;12.20;99.90;;;;;;5068353;28;20044;-62
2023/08/29 03:43:32;;;;;;;7.18;1.75;;;12.00;99.90;;;;;;5070062;28;20065;-56
2023/08/29 03:45:58;;;;;;;9.25;2.85;;;12.00;99.90;;;;;;5070041;28;20486;-58
2023/08/29 03:48:24;;;;;;;11.98;3.65;;;12.00;99.90;;;;;;5069882;28;20392;-58
2023/08/29 03:50:50;;;;;;;4.25;2.85;;;11.90;99.90;;;;;;5068597;28;20507;-57
2023/08/29 03:53:16;;;;;;;4.40;2.70;;;11.80;99.90;;;;;;5070028;28;20116;-58
2023/08/29 03:55:42;;;;;;;4.13;2.35;;;11.90;99.90;;;;;;5071631;28;20040;-58
2023/08/29 03:58:08;;;;;;;4.03;1.60;;;11.90;99.90;;;;;;5073899;28;20569;-59
2023/08/29 04:00:34;;;;;;;17.73;2.88;;;11.80;99.90;;;;;;5072176;28;20131;-54
2023/08/29 04:03:01;;;;;;;5.43;2.33;;;11.80;99.90;;;;;;5073538;28;20059;-59
2023/08/29 04:05:27;;;;;;;4.72;2.13;;;11.90;99.90;;;;;;5073511;28;20048;-61
2023/08/29 04:07:53;;;;;;;15.43;3.10;;;11.80;99.90;;;;;;5073516;28;20099;-56
2023/08/29 04:10:19;;;;;;;14.43;3.10;;;11.80;99.90;;;;;;5073568;28;20227;-58
2023/08/29 04:12:45;;;;;;;5.75;2.80;;;11.80;99.90;;;;;;5072062;28;20495;-55
2023/08/29 04:15:12;;;;;;;18.70;4.05;;;11.70;99.90;;;;;;5073181;28;20127;-55
2023/08/29 04:17:41;;;;;;;8.25;2.63;;;11.70;99.90;;;;;;5070973;28;20047;-59
2023/08/29 04:20:12;;;;;;;3.67;2.45;;;11.70;99.90;;;;;;5073099;28;20036;-55
2023/08/29 04:22:38;;;;;;;3.92;1.83;;;11.70;99.90;;;;;;5070214;28;20046;-61
2023/08/29 04:25:07;;;;;;;9.75;2.05;;;11.60;99.90;;;;;;5072855;28;20032;-60
2023/08/29 04:27:34;;;;;;;9.40;2.05;;;11.60;99.90;;;;;;5072960;28;20111;-56
2023/08/29 04:30:00;;;;;;;10.35;2.20;;;11.60;99.90;;;;;;5072355;28;20047;-59
2023/08/29 04:32:26;;;;;;;4.28;2.08;;;11.50;99.90;;;;;;5073110;28;20040;-58
2023/08/29 04:34:51;;;;;;;3.10;1.70;;;11.50;99.90;;;;;;5071760;28;20090;-58
2023/08/29 04:37:17;;;;;;;3.08;2.03;;;11.50;99.90;;;;;;5073170;28;20068;-55
2023/08/29 04:39:44;;;;;;;3.47;2.10;;;11.50;99.90;;;;;;5070651;28;20032;-59
2023/08/29 04:42:10;;;;;;;3.40;2.10;;;11.40;99.90;;;;;;5072217;28;20583;-58
2023/08/29 04:44:35;;;;;;;3.72;2.33;;;11.40;99.90;;;;;;5072828;28;20115;-57
2023/08/29 04:47:03;;;;;;;4.82;2.40;;;11.40;99.90;;;;;;5071543;28;20087;-56
2023/08/29 04:49:29;;;;;;;5.47;2.60;;;11.30;99.90;;;;;;5072024;28;20083;-54
2023/08/29 04:51:55;;;;;;;5.35;1.85;;;11.30;99.90;;;;;;5071573;28;20064;-58
2023/08/29 04:54:21;;;;;;;9.45;4.03;;;11.30;99.90;;;;;;5072572;28;20111;-60
2023/08/29 04:56:47;;;;;;;27.02;5.25;;;11.40;99.90;;;;;;5072506;28;20060;-58
2023/08/29 04:59:13;;;;;;;8.73;5.13;;;11.40;99.90;;;;;;5072446;28;20074;-60
2023/08/29 05:01:39;;;;;;;41.63;6.15;;;11.30;99.90;;;;;;5072540;28;20037;-56
2023/08/29 05:04:05;;;;;;;35.13;6.05;;;11.40;99.90;;;;;;5071955;28;20040;-59
2023/08/29 05:06:31;;;;;;;28.60;5.20;;;11.40;99.90;;;;;;5070985;28;20036;-57
2023/08/29 05:08:57;;;;;;;30.85;3.33;;;11.40;99.90;;;;;;5069838;28;20028;-58
2023/08/29 05:11:22;;;;;;;34.50;5.65;;;11.30;99.90;;;;;;5072200;28;20047;-53
2023/08/29 05:13:48;;;;;;;22.10;5.00;;;11.40;99.90;;;;;;5072225;28;20389;-55
2023/08/29 05:16:15;;;;;;;8.48;4.28;;;11.40;99.90;;;;;;5071641;28;20071;-55
2023/08/29 05:18:41;;;;;;;9.20;4.20;;;11.40;99.90;;;;;;5072119;28;20040;-58
2023/08/29 05:21:06;;;;;;;19.65;4.68;;;11.40;99.90;;;;;;5071610;28;20117;-56
2023/08/29 05:23:32;;;;;;;29.65;4.60;;;11.40;99.90;;;;;;5071853;28;20032;-60
2023/08/29 05:25:58;;;;;;;20.60;4.60;;;11.40;99.90;;;;;;5070590;28;20147;-55
2023/08/29 05:28:23;;;;;;;21.00;4.15;;;11.40;99.90;;;;;;5071885;28;20046;-56
2023/08/29 05:30:49;;;;;;;15.40;4.72;;;11.50;99.90;;;;;;5071838;28;20419;-57
2023/08/29 05:33:15;;;;;;;34.55;4.80;;;11.50;99.90;;;;;;5070111;28;20119;-56
2023/08/29 05:35:40;;;;;;;26.73;4.15;;;11.40;99.90;;;;;;5069776;28;20102;-59
2023/08/29 05:38:06;;;;;;;8.35;3.53;;;11.40;99.90;;;;;;5071258;28;20543;-57
2023/08/29 05:40:32;;;;;;;5.38;1.85;;;11.50;99.90;;;;;;5071447;28;20116;-57
2023/08/29 05:42:57;;;;;;;8.18;3.50;;;11.50;99.90;;;;;;5066713;28;20388;-57
2023/08/29 05:45:23;;;;;;;17.48;3.40;;;11.50;99.90;;;;;;5068670;28;20054;-57
2023/08/29 05:47:49;;;;;;;9.95;1.70;;;11.60;99.90;;;;;;5067348;28;20458;-57
2023/08/29 05:50:14;;;;;;;7.22;1.17;;;11.60;99.90;;;;;;5067739;28;20041;-57
2023/08/29 05:52:40;;;;;;;37.90;2.83;;;11.60;99.90;;;;;;5065659;28;20654;-56
2023/08/29 05:55:06;;;;;;;36.20;2.25;;;11.80;99.90;;;;;;5066400;28;20037;-58
2023/08/29 05:57:32;;;;;;;21.25;2.92;;;11.80;99.90;;;;;;5069628;28;20379;-62
2023/08/29 05:59:57;;;;;;;30.38;2.00;;;11.90;99.90;;;;;;5068927;28;20123;-56
2023/08/29 06:02:23;;;;;;;21.65;2.40;;;11.80;99.90;;;;;;5071570;28;20061;-57
2023/08/29 06:04:50;;;;;;;26.83;2.53;;;11.70;99.90;;;;;;5071748;28;20134;-57
2023/08/29 06:07:15;;;;;;;33.95;2.55;;;11.90;99.90;;;;;;5056247;28;20036;-55
2023/08/29 06:09:41;;;;;;;50.60;2.72;;;11.90;99.90;;;;;;5062189;28;20391;-58
2023/08/29 06:12:07;;;;;;;24.58;1.90;;;11.80;99.90;;;;;;5061063;28;20541;-56
2023/08/29 06:14:33;;;;;;;31.73;2.80;;;11.90;99.90;;;;;;5059165;28;20036;-57
2023/08/29 06:16:59;;;;;;;22.88;2.45;;;11.90;99.90;;;;;;5060400;28;20078;-58
2023/08/29 06:19:25;;;;;;;45.67;3.28;;;11.80;99.90;;;;;;5062138;28;20068;-59
2023/08/29 06:21:51;;;;;;;15.77;1.80;;;11.90;99.90;;;;;;5062030;28;20529;-56
2023/08/29 06:24:16;;;;;;;30.88;2.85;;;12.10;99.90;;;;;;5062355;28;20028;-58
2023/08/29 06:26:42;;;;;;;45.38;5.03;;;12.20;99.90;;;;;;5062754;28;20075;-58
2023/08/29 06:29:08;;;;;;;21.10;3.58;;;12.10;99.90;;;;;;5061102;28;20062;-58
2023/08/29 06:31:34;;;;;;;32.72;4.70;;;12.20;99.90;;;;;;5062848;28;20064;-56
2023/08/29 06:33:59;;;;;;;23.55;3.72;;;12.40;99.90;;;;;;5061143;28;20118;-56
2023/08/29 06:36:27;;;;;;;47.20;5.82;;;12.50;99.90;;;;;;5061169;28;20056;-57
2023/08/29 06:38:53;;;;;;;95.47;9.10;;;12.60;99.90;;;;;;5061408;28;20068;-59
2023/08/29 06:41:19;;;;;;;52.10;7.95;;;12.70;99.90;;;;;;5061899;28;20400;-58
2023/08/29 06:43:46;;;;;;;97.30;9.52;;;12.70;99.90;;;;;;5059697;28;20032;-55
2023/08/29 06:46:16;;;;;;;64.63;9.90;;;12.80;99.90;;;;;;5062869;28;20064;-57
2023/08/29 06:48:41;;;;;;;69.97;9.68;;;12.90;99.90;;;;;;5062619;28;20067;-56
2023/08/29 06:51:09;;;;;;;54.53;10.20;;;13.00;99.90;;;;;;5060751;28;20052;-54
2023/08/29 06:53:34;;;;;;;62.60;10.82;;;13.10;99.90;;;;;;5044563;28;20068;-59
2023/08/29 06:56:00;;;;;;;23.25;12.07;;;13.40;99.90;;;;;;5061846;28;20075;-57
2023/08/29 06:58:26;;;;;;;26.75;11.88;;;13.30;99.90;;;;;;5061720;28;20033;-59
2023/08/29 07:00:54;;;;;;;18.17;10.30;;;13.70;99.90;;;;;;5059889;28;20021;-58
2023/08/29 07:03:20;;;;;;;14.57;6.40;;;13.50;99.90;;;;;;5060799;28;20111;-58
2023/08/29 07:05:46;;;;;;;32.20;12.25;;;13.60;99.90;;;;;;5058189;28;20132;-57
2023/08/29 07:08:12;;;;;;;22.73;11.88;;;14.00;99.90;;;;;;5060086;28;20047;-58
2023/08/29 07:10:38;;;;;;;15.85;7.22;;;13.90;99.90;;;;;;5061238;28;20507;-54
2023/08/29 07:13:04;;;;;;;29.55;14.68;;;14.20;99.90;;;;;;5062746;28;20060;-58
2023/08/29 07:15:30;;;;;;;22.08;11.57;;;14.30;99.90;;;;;;5061095;28;20298;-57
2023/08/29 07:17:56;;;;;;;21.92;15.85;;;14.20;99.90;;;;;;5061509;28;20052;-57
2023/08/29 07:20:22;;;;;;;18.33;13.43;;;14.30;99.90;;;;;;5060878;28;20043;-59
2023/08/29 07:22:48;;;;;;;15.82;13.23;;;14.70;99.90;;;;;;5061947;28;20134;-57
2023/08/29 07:25:15;;;;;;;18.40;12.65;;;14.70;99.90;;;;;;5058831;28;20060;-60
2023/08/29 07:27:41;;;;;;;14.32;11.13;;;14.80;99.90;;;;;;5039984;28;20041;-58
2023/08/29 07:30:07;;;;;;;14.13;11.85;;;15.00;99.90;;;;;;5063985;28;20488;-57
2023/08/29 07:32:34;;;;;;;14.23;10.90;;;14.80;99.90;;;;;;5066014;28;20060;-59
2023/08/29 07:35:00;;;;;;;14.95;10.60;;;15.00;99.90;;;;;;5065263;28;20071;-59
2023/08/29 07:37:25;;;;;;;10.57;8.02;;;15.10;99.90;;;;;;5064714;28;20037;-56
2023/08/29 07:39:51;;;;;;;12.82;7.95;;;15.20;99.90;;;;;;5062862;28;20075;-58
2023/08/29 07:42:17;;;;;;;11.02;6.65;;;15.30;99.90;;;;;;5063426;28;20132;-58
2023/08/29 07:44:43;;;;;;;10.88;6.68;;;15.10;99.90;;;;;;5063651;28;20048;-58
2023/08/29 07:47:09;;;;;;;10.38;7.15;;;15.40;99.90;;;;;;5062088;28;20052;-56
2023/08/29 07:49:35;;;;;;;10.35;6.28;;;15.50;99.90;;;;;;5065888;28;20033;-57
2023/08/29 07:52:01;;;;;;;9.40;6.45;;;15.50;99.90;;;;;;5062890;28;20052;-57
2023/08/29 07:54:27;;;;;;;8.48;5.20;;;15.40;99.90;;;;;;5065323;28;20036;-58
2023/08/29 07:56:53;;;;;;;11.18;3.97;;;15.50;99.90;;;;;;5047254;28;20055;-58
2023/08/29 07:59:19;;;;;;;7.40;4.25;;;15.70;99.90;;;;;;5063497;28;20039;-56
2023/08/29 08:01:46;;;;;;;7.07;4.55;;;15.70;99.90;;;;;;5064796;28;20040;-57
2023/08/29 08:04:12;;;;;;;7.63;4.15;;;15.80;99.90;;;;;;5062626;28;20387;-57
2023/08/29 08:06:39;;;;;;;9.00;4.07;;;15.90;99.90;;;;;;5064773;28;20033;-56
2023/08/29 08:09:05;;;;;;;6.75;3.80;;;16.00;99.90;;;;;;5063982;28;20040;-57
2023/08/29 08:11:31;;;;;;;7.03;3.30;;;16.10;99.90;;;;;;5063578;28;20467;-59
2023/08/29 08:13:57;;;;;;;7.65;3.58;;;16.00;99.90;;;;;;5063957;28;20936;-58
2023/08/29 08:16:23;;;;;;;5.18;3.83;;;16.20;99.90;;;;;;5063691;28;20064;-59
2023/08/29 08:18:49;;;;;;;6.90;4.15;;;16.10;99.90;;;;;;5064074;28;20049;-60
2023/08/29 08:21:14;;;;;;;6.68;4.10;;;16.20;99.90;;;;;;5064602;28;20112;-56
2023/08/29 08:23:40;;;;;;;7.30;4.32;;;16.30;99.90;;;;;;5065116;28;20033;-57
2023/08/29 08:26:06;;;;;;;6.38;3.70;;;16.50;99.90;;;;;;5064815;28;20090;-59
2023/08/29 08:28:32;;;;;;;6.32;4.20;;;16.40;99.90;;;;;;5064320;28;20052;-59
2023/08/29 08:30:57;;;;;;;6.55;4.53;;;16.70;99.90;;;;;;5065046;28;20037;-57
2023/08/29 08:33:24;;;;;;;8.35;4.65;;;16.80;99.90;;;;;;5064095;28;20035;-58
2023/08/29 08:35:50;;;;;;;7.88;4.30;;;16.80;99.90;;;;;;5063136;28;20438;-57
2023/08/29 08:38:16;;;;;;;6.95;3.70;;;16.80;99.90;;;;;;5063291;28;20033;-57
2023/08/29 08:40:42;;;;;;;5.72;3.70;;;17.10;99.90;;;;;;5063341;28;20727;-56
2023/08/29 08:43:09;;;;;;;5.07;3.45;;;17.00;99.90;;;;;;5062702;28;20051;-58
2023/08/29 08:45:37;;;;;;;5.88;3.30;;;17.10;99.90;;;;;;5064607;28;20036;-53
2023/08/29 08:48:04;;;;;;;7.25;3.33;;;17.20;99.90;;;;;;5061249;28;20040;-59
2023/08/29 08:50:30;;;;;;;5.72;3.20;;;17.30;99.90;;;;;;5062147;28;20044;-56
2023/08/29 08:52:57;;;;;;;5.35;3.00;;;17.40;99.90;;;;;;5063529;28;20040;-56
2023/08/29 08:55:23;;;;;;;7.00;3.20;;;17.40;99.90;;;;;;5064114;28;20056;-59
2023/08/29 08:57:51;;;;;;;5.63;2.78;;;17.40;99.90;;;;;;5058613;28;20411;-58
2023/08/29 09:00:17;;;;;;;4.57;2.80;;;17.50;99.90;;;;;;5065898;28;20074;-55
2023/08/29 09:02:44;;;;;;;5.90;3.10;;;17.50;99.90;;;;;;5068739;28;20469;-54
2023/08/29 09:05:10;;;;;;;6.13;3.10;;;17.50;99.90;;;;;;5053219;28;20495;-57
2023/08/29 09:07:40;;;;;;;5.55;2.72;;;17.70;99.90;;;;;;5068837;28;20082;-57
2023/08/29 09:10:15;;;;;;;5.43;2.90;;;17.60;99.90;;;;;;5069691;28;20040;-57
2023/08/29 09:12:51;;;;;;;5.60;2.88;;;17.70;99.90;;;;;;5070068;28;20556;-56
2023/08/29 09:15:19;;;;;;;7.65;2.75;;;17.70;99.90;;;;;;5071872;28;20094;-56
2023/08/29 09:17:54;;;;;;;5.03;2.90;;;17.80;99.90;;;;;;5071153;28;20057;-55
2023/08/29 09:20:29;;;;;;;5.75;2.80;;;17.80;99.90;;;;;;5071864;28;20479;-58
2023/08/29 09:22:55;;;;;;;4.82;2.30;;;17.80;99.90;;;;;;5072445;28;20438;-58
2023/08/29 09:25:20;;;;;;;5.35;2.60;;;17.90;99.90;;;;;;5072119;28;20459;-59
2023/08/29 09:27:48;;;;;;;5.25;2.38;;;17.90;99.90;;;;;;5068874;28;20302;-59
2023/08/29 09:30:18;;;;;;;5.57;2.70;;;18.00;99.90;;;;;;5070340;28;20032;-60
2023/08/29 09:32:50;;;;;;;5.15;2.40;;;17.90;99.90;;;;;;5070839;28;20041;-60
2023/08/29 09:35:19;;;;;;;3.40;2.10;;;18.00;99.90;;;;;;5070551;28;20045;-58
2023/08/29 09:37:54;;;;;;;6.78;2.58;;;18.10;99.90;;;;;;5070723;28;20473;-59
2023/08/29 09:40:21;;;;;;;6.53;2.38;;;18.20;99.90;;;;;;5068455;28;20049;-58
2023/08/29 09:42:54;;;;;;;5.15;2.65;;;18.30;99.90;;;;;;5071828;28;20032;-58
2023/08/29 09:45:20;;;;;;;5.97;2.42;;;18.40;99.90;;;;;;5071281;28;20426;-54
2023/08/29 09:47:45;;;;;;;5.40;2.47;;;18.50;99.90;;;;;;5069944;28;20048;-56
2023/08/29 09:50:11;;;;;;;4.85;2.47;;;18.50;99.90;;;;;;5070493;28;20040;-58
2023/08/29 09:52:37;;;;;;;5.95;2.47;;;18.60;99.90;;;;;;5067043;28;20039;-60
2023/08/29 09:55:08;;;;;;;5.72;2.40;;;18.70;99.90;;;;;;5069269;28;20127;-57
2023/08/29 09:57:35;;;;;;;3.95;2.10;;;18.80;99.90;;;;;;5069486;28;20432;-60
2023/08/29 10:00:04;;;;;;;4.35;2.00;;;18.90;99.90;;;;;;5062558;28;20052;-56
2023/08/29 10:02:30;;;;;;;5.00;2.38;;;18.90;99.90;;;;;;5061197;28;20093;-59
2023/08/29 10:05:05;;;;;;;2.92;1.60;;;19.00;99.90;;;;;;5054030;28;20468;-58
2023/08/29 10:07:43;;;;;;;3.05;1.60;;;19.00;99.90;;;;;;5060417;28;20395;-57
2023/08/29 10:10:10;;;;;;;5.05;1.70;;;19.10;99.90;;;;;;5059931;28;20043;-58
2023/08/29 10:12:37;;;;;;;3.15;1.60;;;19.10;99.90;;;;;;5061596;28;20032;-59
2023/08/29 10:15:04;;;;;;;4.70;1.90;;;19.10;99.90;;;;;;5044692;28;20040;-60
2023/08/29 10:17:34;;;;;;;3.95;1.63;;;19.00;99.90;;;;;;5061726;28;20611;-58
2023/08/29 10:20:04;;;;;;;4.95;2.05;;;19.00;99.90;;;;;;5076784;28;20503;-58
2023/08/29 10:22:30;;;;;;;4.30;2.70;;;19.00;99.90;;;;;;5060452;28;20039;-58
2023/08/29 10:24:59;;;;;;;4.05;2.40;;;18.90;99.90;;;;;;5061097;28;20068;-58
2023/08/29 10:27:24;;;;;;;5.88;2.50;;;19.00;99.90;;;;;;5061267;28;20032;-54
2023/08/29 10:29:50;;;;;;;3.58;2.20;;;19.10;99.90;;;;;;5087721;28;20066;-57
2023/08/29 10:32:16;;;;;;;4.75;2.10;;;19.10;99.90;;;;;;5062554;28;20102;-59
2023/08/29 10:34:42;;;;;;;3.80;2.45;;;19.20;99.90;;;;;;5059194;28;20416;-57
2023/08/29 10:37:21;;;;;;;6.03;2.78;;;19.20;99.90;;;;;;5060491;28;20471;-58
2023/08/29 10:39:50;;;;;;;4.78;2.50;;;19.20;99.90;;;;;;5060599;28;20032;-56
2023/08/29 10:42:16;;;;;;;6.35;2.90;;;19.30;99.90;;;;;;5050759;28;20033;-58
2023/08/29 10:44:44;;;;;;;5.93;2.75;;;19.60;99.90;;;;;;5050142;28;20045;-58
2023/08/29 10:47:26;;;;;;;5.03;3.15;;;19.90;99.90;;;;;;5046481;28;20037;-56
2023/08/29 10:50:02;;;;;;;4.40;2.80;;;20.10;99.90;;;;;;5042651;28;20044;-58
2023/08/29 10:52:40;;;;;;;4.95;2.95;;;20.00;99.90;;;;;;5035310;28;20040;-59
2023/08/29 10:55:18;;;;;;;4.88;2.70;;;19.90;99.90;;;;;;5036000;28;20141;-58
2023/08/29 10:57:44;;;;;;;5.80;2.45;;;20.00;99.90;;;;;;5045936;28;20046;-56
2023/08/29 11:00:18;;;;;;;5.00;2.70;;;20.00;99.90;;;;;;5045681;28;20542;-58
2023/08/29 11:02:44;;;;;;;5.28;3.05;;;20.10;99.90;;;;;;5044921;28;20060;-57
2023/08/29 11:05:11;;;;;;;5.40;3.00;;;20.00;99.90;;;;;;5050187;28;20124;-59
2023/08/29 11:07:38;;;;;;;5.32;3.20;;;20.00;99.90;;;;;;5046399;28;20044;-58
2023/08/29 11:10:23;;;;;;;3.92;2.90;;;20.20;99.90;;;;;;5052341;28;20068;-61
2023/08/29 11:13:09;;;;;;;5.68;2.63;;;20.50;99.90;;;;;;5053514;28;20171;-55
2023/08/29 11:15:50;;;;;;;4.82;3.25;;;20.90;99.90;;;;;;5054951;28;20127;-58
2023/08/29 11:18:19;;;;;;;4.07;2.70;;;21.10;99.90;;;;;;5054447;28;20060;-59
2023/08/29 11:20:46;;;;;;;5.00;2.58;;;21.00;99.90;;;;;;5054590;28;20047;-58
2023/08/29 11:23:12;;;;;;;5.50;2.90;;;21.00;99.90;;;;;;5082933;28;20056;-56
2023/08/29 11:25:38;;;;;;;6.78;3.00;;;21.20;99.90;;;;;;5056221;28;20075;-57
2023/08/29 11:28:05;;;;;;;5.93;2.47;;;21.40;99.90;;;;;;5052578;28;20036;-55
2023/08/29 11:30:34;;;;;;;4.47;2.55;;;21.40;99.90;;;;;;5054090;28;20089;-56
2023/08/29 11:33:03;;;;;;;4.40;2.53;;;21.40;99.90;;;;;;5053429;28;20119;-58
2023/08/29 11:35:29;;;;;;;3.75;2.33;;;21.30;99.90;;;;;;5052237;28;20662;-55
2023/08/29 11:37:55;;;;;;;4.78;2.30;;;21.00;99.90;;;;;;5054840;28;20042;-57
2023/08/29 11:40:21;;;;;;;5.82;2.40;;;20.80;99.90;;;;;;5054226;28;20038;-61
2023/08/29 11:42:47;;;;;;;5.15;2.50;;;20.70;99.90;;;;;;5053835;28;20040;-59
2023/08/29 11:45:16;;;;;;;4.38;2.75;;;20.60;99.90;;;;;;5053802;28;20044;-58
2023/08/29 11:47:42;;;;;;;4.90;2.65;;;20.60;99.90;;;;;;5055076;28;20569;-57
2023/08/29 11:50:08;;;;;;;4.25;2.53;;;20.40;99.90;;;;;;5054788;28;20040;-56
2023/08/29 11:52:34;;;;;;;6.22;2.67;;;20.30;99.90;;;;;;5060315;28;20040;-60
2023/08/29 11:55:04;;;;;;;4.68;2.60;;;20.10;99.90;;;;;;5072006;28;21431;-58
2023/08/29 11:57:30;;;;;;;4.28;2.42;;;20.10;99.90;;;;;;5072209;28;20044;-59
2023/08/29 11:59:57;;;;;;;3.80;2.08;;;20.10;99.90;;;;;;5070265;28;20044;-58
2023/08/29 12:02:24;;;;;;;5.40;3.17;;;20.00;99.90;;;;;;5074133;28;20033;-58
2023/08/29 12:04:55;;;;;;;3.22;2.00;;;20.00;99.90;;;;;;5073726;28;20051;-59
2023/08/29 12:07:21;;;;;;;2.75;1.70;;;19.90;99.90;;;;;;5073897;28;20036;-54
2023/08/29 12:09:48;;;;;;;3.40;2.30;;;19.90;99.90;;;;;;5073306;28;20063;-58
2023/08/29 12:12:35;;;;;;;4.82;3.03;;;19.90;99.90;;;;;;5073585;28;20452;-56
2023/08/29 12:15:01;;;;;;;5.15;2.90;;;19.90;99.90;;;;;;5072067;28;21368;-56
2023/08/29 12:17:38;;;;;;;4.15;2.58;;;19.80;99.90;;;;;;5072252;28;20131;-55
2023/08/29 12:20:21;;;;;;;6.75;2.90;;;19.80;99.90;;;;;;5073011;28;20125;-58
2023/08/29 12:22:49;;;;;;;3.97;2.40;;;19.70;99.90;;;;;;5073439;28;20500;-55
2023/08/29 12:25:15;;;;;;;5.32;3.10;;;19.70;99.90;;;;;;5072945;28;20036;-56
2023/08/29 12:27:41;;;;;;;4.47;2.90;;;19.70;99.90;;;;;;5072195;28;20036;-55
2023/08/29 12:30:13;;;;;;;4.95;3.38;;;19.60;99.90;;;;;;5072384;28;20537;-57
2023/08/29 12:32:39;;;;;;;6.93;3.83;;;19.50;99.90;;;;;;5072411;28;20048;-59
2023/08/29 12:35:06;;;;;;;7.07;3.97;;;19.50;99.90;;;;;;5072756;28;20075;-57
2023/08/29 12:37:32;;;;;;;5.45;4.00;;;19.40;99.90;;;;;;5071167;28;20054;-59
2023/08/29 12:39:58;;;;;;;5.55;3.72;;;19.40;99.90;;;;;;5072985;28;20422;-59
2023/08/29 12:42:24;;;;;;;5.55;4.05;;;19.40;99.90;;;;;;5072865;28;20090;-59